EGMC/SEN METAR and TAF weather

Enter ICAO airport designator
Station Type Date Time Source
EGMC METAR 2024/04/18 08:20 UTC NOAA

EGMC 180820Z 36008KT 330V030 9999 FEW020 09/04 Q1023


Station Type Date Time Source
EGMC Decoded METAR 2024/04/18 08:20 UTC NOAA

Southend-On-Sea , United Kingdom (EGMC) 51-34N 000-42E
Apr 18, 2024 - 04:20 AM EDT / 2024.04.18 0820 UTC
Wind: from the N (360 degrees) at 9 MPH (8 KT) (direction variable):0
Visibility: greater than 7 mile(s):0
Sky conditions: mostly clear
Temperature: 48 F (9 C)
Dew Point: 39 F (4 C)
Relative Humidity: 70%
Pressure (altimeter): 30.21 in. Hg (1023 hPa)
ob: EGMC 180820Z 36008KT 330V030 9999 FEW020 09/04 Q1023
cycle: 8

Station Type Date Time Source
EGMC TAF 2016/04/18 18:00 UTC NOAA